sensor_id;sensor_type;location;lat;lon;timestamp;pressure;altitude;pressure_sealevel;temperature;humidity
38285;BME280;24088;42.664;23.354;2022-10-03T00:01:16;95069.59;;;12.68;100.00
38285;BME280;24088;42.664;23.354;2022-10-03T00:02:27;95060.63;;;12.81;100.00
38285;BME280;24088;42.664;23.354;2022-10-03T00:03:33;95051.41;;;12.71;100.00
38285;BME280;24088;42.664;23.354;2022-10-03T00:04:39;95049.78;;;12.73;100.00
38285;BME280;24088;42.664;23.354;2022-10-03T00:05:46;95049.94;;;12.83;100.00
38285;BME280;24088;42.664;23.354;2022-10-03T00:06:53;95047.78;;;12.90;100.00
38285;BME280;24088;42.664;23.354;2022-10-03T00:08:02;95045.44;;;12.89;100.00
38285;BME280;24088;42.664;23.354;2022-10-03T00:09:14;95044.28;;;12.73;100.00
38285;BME280;24088;42.664;23.354;2022-10-03T00:10:21;95042.38;;;12.70;100.00
38285;BME280;24088;42.664;23.354;2022-10-03T00:11:37;95047.88;;;12.70;100.00
38285;BME280;24088;42.664;23.354;2022-10-03T00:12:44;95043.13;;;12.71;100.00
38285;BME280;24088;42.664;23.354;2022-10-03T00:13:49;95046.88;;;12.64;100.00
38285;BME280;24088;42.664;23.354;2022-10-03T00:14:56;95039.13;;;12.59;100.00
38285;BME280;24088;42.664;23.354;2022-10-03T00:16:04;95032.53;;;12.86;100.00
38285;BME280;24088;42.664;23.354;2022-10-03T00:17:09;95031.16;;;12.94;100.00
38285;BME280;24088;42.664;23.354;2022-10-03T00:18:16;95025.69;;;13.07;100.00
38285;BME280;24088;42.664;23.354;2022-10-03T00:19:23;95024.28;;;13.15;100.00
38285;BME280;24088;42.664;23.354;2022-10-03T00:20:38;95022.59;;;13.04;100.00
38285;BME280;24088;42.664;23.354;2022-10-03T00:21:46;95024.06;;;12.93;100.00
38285;BME280;24088;42.664;23.354;2022-10-03T00:22:51;95014.84;;;12.99;100.00
38285;BME280;24088;42.664;23.354;2022-10-03T00:23:57;95017.44;;;13.07;100.00
38285;BME280;24088;42.664;23.354;2022-10-03T00:25:05;95017.84;;;13.05;100.00
38285;BME280;24088;42.664;23.354;2022-10-03T00:26:16;95011.69;;;13.14;100.00
38285;BME280;24088;42.664;23.354;2022-10-03T00:27:32;95016.44;;;13.13;100.00
38285;BME280;24088;42.664;23.354;2022-10-03T00:28:42;95022.31;;;13.15;100.00
38285;BME280;24088;42.664;23.354;2022-10-03T00:29:51;95016.59;;;12.93;100.00
38285;BME280;24088;42.664;23.354;2022-10-03T00:31:02;95009.19;;;12.90;100.00
38285;BME280;24088;42.664;23.354;2022-10-03T00:32:14;95011.19;;;12.90;100.00
38285;BME280;24088;42.664;23.354;2022-10-03T00:33:25;95028.56;;;12.87;100.00
38285;BME280;24088;42.664;23.354;2022-10-03T00:34:32;95020.69;;;12.72;100.00
38285;BME280;24088;42.664;23.354;2022-10-03T00:35:44;95024.38;;;12.82;100.00
38285;BME280;24088;42.664;23.354;2022-10-03T00:36:51;95027.59;;;12.64;100.00
38285;BME280;24088;42.664;23.354;2022-10-03T00:37:58;95016.56;;;12.64;100.00
38285;BME280;24088;42.664;23.354;2022-10-03T00:39:02;95019.84;;;12.59;100.00
38285;BME280;24088;42.664;23.354;2022-10-03T00:41:33;95019.31;;;12.64;100.00
38285;BME280;24088;42.664;23.354;2022-10-03T00:44:02;95026.63;;;12.54;100.00
38285;BME280;24088;42.664;23.354;2022-10-03T00:49:10;95019.94;;;12.39;100.00
38285;BME280;24088;42.664;23.354;2022-10-03T00:50:27;95019.50;;;12.41;100.00
38285;BME280;24088;42.664;23.354;2022-10-03T00:51:38;95023.13;;;12.38;100.00
38285;BME280;24088;42.664;23.354;2022-10-03T00:52:47;95025.44;;;12.39;100.00
38285;BME280;24088;42.664;23.354;2022-10-03T00:53:54;95019.41;;;12.44;100.00
38285;BME280;24088;42.664;23.354;2022-10-03T00:55:02;95025.53;;;12.52;100.00
38285;BME280;24088;42.664;23.354;2022-10-03T00:56:11;95027.75;;;12.41;100.00
38285;BME280;24088;42.664;23.354;2022-10-03T00:57:23;95037.66;;;12.06;100.00
38285;BME280;24088;42.664;23.354;2022-10-03T00:58:33;95035.16;;;12.11;100.00
38285;BME280;24088;42.664;23.354;2022-10-03T00:59:43;95024.84;;;12.15;100.00
38285;BME280;24088;42.664;23.354;2022-10-03T01:00:48;95028.63;;;12.05;100.00
38285;BME280;24088;42.664;23.354;2022-10-03T01:01:50;95022.50;;;11.97;100.00
38285;BME280;24088;42.664;23.354;2022-10-03T01:02:56;95025.88;;;12.05;100.00
38285;BME280;24088;42.664;23.354;2022-10-03T01:04:04;95022.00;;;12.35;100.00
38285;BME280;24088;42.664;23.354;2022-10-03T01:05:13;95020.03;;;12.52;100.00
38285;BME280;24088;42.664;23.354;2022-10-03T01:06:18;95015.19;;;12.56;100.00
38285;BME280;24088;42.664;23.354;2022-10-03T01:08:49;95009.53;;;12.31;100.00
38285;BME280;24088;42.664;23.354;2022-10-03T01:09:59;95009.63;;;12.27;100.00
38285;BME280;24088;42.664;23.354;2022-10-03T01:11:07;95000.75;;;12.19;100.00
38285;BME280;24088;42.664;23.354;2022-10-03T01:12:16;95010.22;;;12.18;100.00
38285;BME280;24088;42.664;23.354;2022-10-03T01:13:27;95003.00;;;12.08;100.00
38285;BME280;24088;42.664;23.354;2022-10-03T01:14:36;95008.41;;;12.12;100.00
38285;BME280;24088;42.664;23.354;2022-10-03T01:15:48;95006.63;;;12.21;100.00
38285;BME280;24088;42.664;23.354;2022-10-03T01:16:53;95008.50;;;12.24;100.00
38285;BME280;24088;42.664;23.354;2022-10-03T01:18:02;95007.03;;;12.36;100.00
38285;BME280;24088;42.664;23.354;2022-10-03T01:19:16;95011.44;;;12.17;100.00
38285;BME280;24088;42.664;23.354;2022-10-03T01:20:27;95008.06;;;12.10;100.00
38285;BME280;24088;42.664;23.354;2022-10-03T01:21:34;95013.16;;;12.27;100.00
38285;BME280;24088;42.664;23.354;2022-10-03T01:24:09;95003.59;;;11.99;100.00
38285;BME280;24088;42.664;23.354;2022-10-03T01:25:18;95012.88;;;12.06;100.00
38285;BME280;24088;42.664;23.354;2022-10-03T01:26:32;95005.00;;;12.08;100.00
38285;BME280;24088;42.664;23.354;2022-10-03T01:27:40;95004.53;;;12.09;100.00
38285;BME280;24088;42.664;23.354;2022-10-03T01:29:00;94997.66;;;12.01;100.00
38285;BME280;24088;42.664;23.354;2022-10-03T01:30:22;94985.13;;;12.00;100.00
38285;BME280;24088;42.664;23.354;2022-10-03T01:31:24;94983.56;;;12.15;100.00
38285;BME280;24088;42.664;23.354;2022-10-03T01:32:30;94986.06;;;12.26;100.00
38285;BME280;24088;42.664;23.354;2022-10-03T01:33:32;94984.06;;;12.10;100.00
38285;BME280;24088;42.664;23.354;2022-10-03T01:34:39;94991.91;;;11.95;100.00
38285;BME280;24088;42.664;23.354;2022-10-03T01:35:44;94989.22;;;11.92;100.00
38285;BME280;24088;42.664;23.354;2022-10-03T01:36:53;94999.88;;;11.90;100.00
38285;BME280;24088;42.664;23.354;2022-10-03T01:38:06;94995.13;;;11.90;100.00
38285;BME280;24088;42.664;23.354;2022-10-03T01:39:12;94993.44;;;11.96;100.00
38285;BME280;24088;42.664;23.354;2022-10-03T01:40:16;94999.97;;;12.02;100.00
38285;BME280;24088;42.664;23.354;2022-10-03T01:41:21;95003.13;;;11.85;100.00
38285;BME280;24088;42.664;23.354;2022-10-03T01:42:34;95008.31;;;11.83;100.00
38285;BME280;24088;42.664;23.354;2022-10-03T01:43:40;94996.22;;;11.76;100.00
38285;BME280;24088;42.664;23.354;2022-10-03T01:44:51;94996.09;;;11.84;100.00
38285;BME280;24088;42.664;23.354;2022-10-03T01:46:00;94996.28;;;11.93;100.00
38285;BME280;24088;42.664;23.354;2022-10-03T01:47:06;94997.00;;;11.77;100.00
38285;BME280;24088;42.664;23.354;2022-10-03T01:48:11;94993.53;;;11.73;100.00
38285;BME280;24088;42.664;23.354;2022-10-03T01:49:16;95001.34;;;11.58;100.00
38285;BME280;24088;42.664;23.354;2022-10-03T01:50:22;94998.34;;;11.69;100.00
38285;BME280;24088;42.664;23.354;2022-10-03T01:51:28;94989.50;;;11.77;100.00
38285;BME280;24088;42.664;23.354;2022-10-03T01:52:34;94987.56;;;11.78;100.00
38285;BME280;24088;42.664;23.354;2022-10-03T01:54:56;94991.84;;;11.79;100.00
38285;BME280;24088;42.664;23.354;2022-10-03T01:56:01;94982.38;;;11.64;100.00
38285;BME280;24088;42.664;23.354;2022-10-03T01:57:09;94986.06;;;11.57;100.00
38285;BME280;24088;42.664;23.354;2022-10-03T01:58:16;94983.81;;;11.52;100.00
38285;BME280;24088;42.664;23.354;2022-10-03T01:59:21;94982.28;;;11.67;100.00
38285;BME280;24088;42.664;23.354;2022-10-03T02:00:24;94988.16;;;11.69;100.00
38285;BME280;24088;42.664;23.354;2022-10-03T02:01:28;94988.22;;;11.66;100.00
38285;BME280;24088;42.664;23.354;2022-10-03T02:02:32;94983.50;;;11.66;100.00
38285;BME280;24088;42.664;23.354;2022-10-03T02:03:36;94986.75;;;11.61;100.00
38285;BME280;24088;42.664;23.354;2022-10-03T02:04:41;94986.38;;;11.59;100.00
38285;BME280;24088;42.664;23.354;2022-10-03T02:05:47;94983.38;;;11.53;100.00
38285;BME280;24088;42.664;23.354;2022-10-03T02:06:51;94988.63;;;11.48;100.00
38285;BME280;24088;42.664;23.354;2022-10-03T02:07:55;94993.25;;;11.51;100.00
38285;BME280;24088;42.664;23.354;2022-10-03T02:09:00;94979.78;;;11.57;100.00
38285;BME280;24088;42.664;23.354;2022-10-03T02:10:05;94984.16;;;11.54;100.00
38285;BME280;24088;42.664;23.354;2022-10-03T02:11:09;94979.34;;;11.58;100.00
38285;BME280;24088;42.664;23.354;2022-10-03T02:12:12;94979.63;;;11.64;100.00
38285;BME280;24088;42.664;23.354;2022-10-03T02:13:15;94979.78;;;11.73;100.00
38285;BME280;24088;42.664;23.354;2022-10-03T02:14:19;94973.44;;;11.76;100.00
38285;BME280;24088;42.664;23.354;2022-10-03T02:15:25;94980.66;;;11.70;100.00
38285;BME280;24088;42.664;23.354;2022-10-03T02:16:29;94973.78;;;11.62;100.00
38285;BME280;24088;42.664;23.354;2022-10-03T02:17:40;94975.31;;;11.63;100.00
38285;BME280;24088;42.664;23.354;2022-10-03T02:18:45;94975.13;;;11.53;100.00
38285;BME280;24088;42.664;23.354;2022-10-03T02:19:50;94977.00;;;11.40;100.00
38285;BME280;24088;42.664;23.354;2022-10-03T02:21:01;94988.00;;;11.40;100.00
38285;BME280;24088;42.664;23.354;2022-10-03T02:22:12;94982.69;;;11.49;100.00
38285;BME280;24088;42.664;23.354;2022-10-03T02:23:21;94975.06;;;11.57;100.00
38285;BME280;24088;42.664;23.354;2022-10-03T02:24:26;94978.31;;;11.52;100.00
38285;BME280;24088;42.664;23.354;2022-10-03T02:25:35;94979.50;;;11.51;100.00
38285;BME280;24088;42.664;23.354;2022-10-03T02:26:55;94988.81;;;11.37;100.00
38285;BME280;24088;42.664;23.354;2022-10-03T02:28:20;94982.91;;;11.39;100.00
38285;BME280;24088;42.664;23.354;2022-10-03T02:29:32;94985.34;;;11.53;100.00
38285;BME280;24088;42.664;23.354;2022-10-03T02:30:37;94979.69;;;11.60;100.00
38285;BME280;24088;42.664;23.354;2022-10-03T02:33:21;94984.81;;;11.42;100.00
38285;BME280;24088;42.664;23.354;2022-10-03T02:34:31;94983.97;;;11.45;100.00
38285;BME280;24088;42.664;23.354;2022-10-03T02:38:39;94985.94;;;11.44;100.00
38285;BME280;24088;42.664;23.354;2022-10-03T02:41:11;94983.00;;;11.51;100.00
38285;BME280;24088;42.664;23.354;2022-10-03T02:42:31;94981.06;;;11.52;100.00
38285;BME280;24088;42.664;23.354;2022-10-03T02:45:09;94984.53;;;11.72;100.00
38285;BME280;24088;42.664;23.354;2022-10-03T02:47:55;94978.06;;;11.83;100.00
38285;BME280;24088;42.664;23.354;2022-10-03T02:49:16;94980.72;;;11.86;100.00
38285;BME280;24088;42.664;23.354;2022-10-03T02:50:33;94993.75;;;11.82;100.00
38285;BME280;24088;42.664;23.354;2022-10-03T02:51:55;94977.75;;;11.77;100.00
38285;BME280;24088;42.664;23.354;2022-10-03T02:53:15;94987.00;;;11.87;100.00
38285;BME280;24088;42.664;23.354;2022-10-03T02:54:41;94976.94;;;11.96;100.00
38285;BME280;24088;42.664;23.354;2022-10-03T02:58:38;94991.41;;;11.81;100.00
38285;BME280;24088;42.664;23.354;2022-10-03T02:59:55;94988.47;;;11.71;100.00
38285;BME280;24088;42.664;23.354;2022-10-03T03:01:18;94990.38;;;11.74;100.00
38285;BME280;24088;42.664;23.354;2022-10-03T03:03:54;94979.53;;;11.67;100.00
38285;BME280;24088;42.664;23.354;2022-10-03T03:05:21;94988.72;;;11.61;100.00
38285;BME280;24088;42.664;23.354;2022-10-03T03:06:30;94980.66;;;11.70;100.00
38285;BME280;24088;42.664;23.354;2022-10-03T03:07:38;94975.94;;;11.70;100.00
38285;BME280;24088;42.664;23.354;2022-10-03T03:10:26;94976.16;;;11.60;100.00
38285;BME280;24088;42.664;23.354;2022-10-03T03:13:10;94977.16;;;11.69;100.00
38285;BME280;24088;42.664;23.354;2022-10-03T03:15:56;94977.63;;;11.48;100.00
38285;BME280;24088;42.664;23.354;2022-10-03T03:17:06;94975.06;;;11.57;100.00
38285;BME280;24088;42.664;23.354;2022-10-03T03:18:12;94975.31;;;11.63;100.00
38285;BME280;24088;42.664;23.354;2022-10-03T03:19:22;94970.56;;;11.47;100.00
38285;BME280;24088;42.664;23.354;2022-10-03T03:20:38;94981.63;;;11.43;100.00
38285;BME280;24088;42.664;23.354;2022-10-03T03:21:43;94981.75;;;11.56;100.00
38285;BME280;24088;42.664;23.354;2022-10-03T03:22:52;94978.91;;;11.60;100.00
38285;BME280;24088;42.664;23.354;2022-10-03T03:24:15;94974.13;;;11.64;100.00
38285;BME280;24088;42.664;23.354;2022-10-03T03:25:23;94970.94;;;11.65;100.00
38285;BME280;24088;42.664;23.354;2022-10-03T03:27:44;94970.81;;;11.89;100.00
38285;BME280;24088;42.664;23.354;2022-10-03T03:28:51;94969.16;;;11.75;100.00
38285;BME280;24088;42.664;23.354;2022-10-03T03:29:55;94969.38;;;11.64;100.00
38285;BME280;24088;42.664;23.354;2022-10-03T03:31:04;94968.19;;;11.65;100.00
38285;BME280;24088;42.664;23.354;2022-10-03T03:32:10;94964.41;;;11.59;100.00
38285;BME280;24088;42.664;23.354;2022-10-03T03:33:20;94969.50;;;11.61;100.00
38285;BME280;24088;42.664;23.354;2022-10-03T03:34:24;94971.09;;;11.58;100.00
38285;BME280;24088;42.664;23.354;2022-10-03T03:35:34;94972.66;;;11.59;100.00
38285;BME280;24088;42.664;23.354;2022-10-03T03:36:39;94968.38;;;11.74;100.00
38285;BME280;24088;42.664;23.354;2022-10-03T03:37:47;94966.84;;;11.73;100.00
38285;BME280;24088;42.664;23.354;2022-10-03T03:38:52;94969.75;;;11.66;100.00
38285;BME280;24088;42.664;23.354;2022-10-03T03:40:02;94967.47;;;11.45;100.00
38285;BME280;24088;42.664;23.354;2022-10-03T03:42:36;94965.50;;;11.45;100.00
38285;BME280;24088;42.664;23.354;2022-10-03T03:43:44;94956.31;;;11.52;100.00
38285;BME280;24088;42.664;23.354;2022-10-03T03:44:54;94963.88;;;11.64;100.00
38285;BME280;24088;42.664;23.354;2022-10-03T03:46:04;94957.38;;;11.74;100.00
38285;BME280;24088;42.664;23.354;2022-10-03T03:47:12;94952.22;;;11.76;100.00
38285;BME280;24088;42.664;23.354;2022-10-03T03:48:20;94963.41;;;11.69;100.00
38285;BME280;24088;42.664;23.354;2022-10-03T03:49:32;94963.66;;;11.75;100.00
38285;BME280;24088;42.664;23.354;2022-10-03T03:50:51;94963.44;;;11.86;100.00
38285;BME280;24088;42.664;23.354;2022-10-03T03:52:00;94960.59;;;11.89;100.00
38285;BME280;24088;42.664;23.354;2022-10-03T03:53:12;94960.47;;;11.76;100.00
38285;BME280;24088;42.664;23.354;2022-10-03T03:54:27;94953.44;;;11.75;100.00
38285;BME280;24088;42.664;23.354;2022-10-03T03:55:42;94951.88;;;11.74;100.00
38285;BME280;24088;42.664;23.354;2022-10-03T03:56:50;94942.41;;;11.59;100.00
38285;BME280;24088;42.664;23.354;2022-10-03T03:57:59;94944.75;;;11.61;100.00
38285;BME280;24088;42.664;23.354;2022-10-03T03:59:08;94949.66;;;11.69;100.00
38285;BME280;24088;42.664;23.354;2022-10-03T04:00:16;94948.38;;;11.74;100.00
38285;BME280;24088;42.664;23.354;2022-10-03T04:01:28;94953.44;;;11.75;100.00
38285;BME280;24088;42.664;23.354;2022-10-03T04:02:41;94945.78;;;11.67;100.00
38285;BME280;24088;42.664;23.354;2022-10-03T04:03:47;94949.38;;;11.64;100.00
38285;BME280;24088;42.664;23.354;2022-10-03T04:04:57;94951.00;;;11.61;100.00
38285;BME280;24088;42.664;23.354;2022-10-03T04:07:40;94947.66;;;11.53;100.00
38285;BME280;24088;42.664;23.354;2022-10-03T04:08:55;94948.41;;;11.54;100.00
38285;BME280;24088;42.664;23.354;2022-10-03T04:10:13;94942.72;;;11.45;100.00
38285;BME280;24088;42.664;23.354;2022-10-03T04:11:19;94939.72;;;11.56;100.00
38285;BME280;24088;42.664;23.354;2022-10-03T04:12:26;94941.78;;;11.51;100.00
38285;BME280;24088;42.664;23.354;2022-10-03T04:13:38;94941.59;;;11.42;100.00
38285;BME280;24088;42.664;23.354;2022-10-03T04:14:51;94942.22;;;11.50;100.00
38285;BME280;24088;42.664;23.354;2022-10-03T04:15:56;94956.31;;;11.52;100.00
38285;BME280;24088;42.664;23.354;2022-10-03T04:17:04;94946.28;;;11.62;100.00
38285;BME280;24088;42.664;23.354;2022-10-03T04:18:31;94941.88;;;11.64;100.00
38285;BME280;24088;42.664;23.354;2022-10-03T04:20:02;94943.75;;;11.51;100.00
38285;BME280;24088;42.664;23.354;2022-10-03T04:21:16;94946.69;;;11.44;100.00
38285;BME280;24088;42.664;23.354;2022-10-03T04:22:26;94942.03;;;11.41;100.00
38285;BME280;24088;42.664;23.354;2022-10-03T04:23:36;94942.06;;;11.57;100.00
38285;BME280;24088;42.664;23.354;2022-10-03T04:24:43;94949.03;;;11.62;100.00
38285;BME280;24088;42.664;23.354;2022-10-03T04:25:52;94943.53;;;11.62;100.00
38285;BME280;24088;42.664;23.354;2022-10-03T04:27:00;94940.94;;;11.54;100.00
38285;BME280;24088;42.664;23.354;2022-10-03T04:28:15;94940.72;;;11.65;100.00
38285;BME280;24088;42.664;23.354;2022-10-03T04:30:44;94933.31;;;11.78;100.00
38285;BME280;24088;42.664;23.354;2022-10-03T04:31:49;94937.44;;;11.70;100.00
38285;BME280;24088;42.664;23.354;2022-10-03T04:33:00;94946.03;;;11.72;100.00
38285;BME280;24088;42.664;23.354;2022-10-03T04:34:15;94942.59;;;11.68;100.00
38285;BME280;24088;42.664;23.354;2022-10-03T04:35:27;94945.91;;;11.60;100.00
38285;BME280;24088;42.664;23.354;2022-10-03T04:36:47;94957.34;;;11.58;100.00
38285;BME280;24088;42.664;23.354;2022-10-03T04:37:52;94943.19;;;11.76;100.00
38285;BME280;24088;42.664;23.354;2022-10-03T04:38:59;94945.00;;;11.66;100.00
38285;BME280;24088;42.664;23.354;2022-10-03T04:40:09;94944.47;;;11.71;100.00
38285;BME280;24088;42.664;23.354;2022-10-03T04:41:20;94940.19;;;11.70;100.00
38285;BME280;24088;42.664;23.354;2022-10-03T04:42:30;94929.81;;;11.78;100.00
38285;BME280;24088;42.664;23.354;2022-10-03T04:43:39;94938.81;;;11.78;100.00
38285;BME280;24088;42.664;23.354;2022-10-03T04:44:47;94940.81;;;11.78;100.00
38285;BME280;24088;42.664;23.354;2022-10-03T04:45:59;94936.81;;;11.83;100.00
38285;BME280;24088;42.664;23.354;2022-10-03T04:47:05;94934.13;;;11.95;100.00
38285;BME280;24088;42.664;23.354;2022-10-03T04:48:09;94938.00;;;11.98;100.00
38285;BME280;24088;42.664;23.354;2022-10-03T04:49:11;94940.56;;;12.05;100.00
38285;BME280;24088;42.664;23.354;2022-10-03T04:50:27;94949.88;;;11.95;100.00
38285;BME280;24088;42.664;23.354;2022-10-03T04:51:38;94929.22;;;11.87;100.00
38285;BME280;24088;42.664;23.354;2022-10-03T04:52:43;94944.03;;;11.73;100.00
38285;BME280;24088;42.664;23.354;2022-10-03T04:53:49;94941.78;;;11.88;100.00
38285;BME280;24088;42.664;23.354;2022-10-03T04:54:56;94941.25;;;11.93;100.00
38285;BME280;24088;42.664;23.354;2022-10-03T04:56:05;94937.66;;;11.96;100.00
38285;BME280;24088;42.664;23.354;2022-10-03T04:57:14;94936.53;;;11.93;100.00
38285;BME280;24088;42.664;23.354;2022-10-03T04:58:20;94935.00;;;11.92;100.00
38285;BME280;24088;42.664;23.354;2022-10-03T05:00:46;94938.69;;;12.02;100.00
38285;BME280;24088;42.664;23.354;2022-10-03T05:01:51;94936.97;;;12.08;100.00
38285;BME280;24088;42.664;23.354;2022-10-03T05:02:56;94940.91;;;12.07;100.00
38285;BME280;24088;42.664;23.354;2022-10-03T05:04:00;94938.69;;;12.02;100.00
38285;BME280;24088;42.664;23.354;2022-10-03T05:06:33;94938.75;;;12.15;100.00
38285;BME280;24088;42.664;23.354;2022-10-03T05:07:37;94939.53;;;12.15;100.00
38285;BME280;24088;42.664;23.354;2022-10-03T05:08:42;94936.63;;;12.06;100.00
38285;BME280;24088;42.664;23.354;2022-10-03T05:09:49;94942.63;;;12.01;100.00
38285;BME280;24088;42.664;23.354;2022-10-03T05:11:04;94930.78;;;12.04;100.00
38285;BME280;24088;42.664;23.354;2022-10-03T05:12:09;94936.00;;;12.15;100.00
38285;BME280;24088;42.664;23.354;2022-10-03T05:13:14;94942.28;;;12.15;100.00
38285;BME280;24088;42.664;23.354;2022-10-03T05:14:19;94944.19;;;12.18;100.00
38285;BME280;24088;42.664;23.354;2022-10-03T05:15:22;94949.75;;;12.15;100.00
38285;BME280;24088;42.664;23.354;2022-10-03T05:16:29;94947.78;;;12.15;100.00
38285;BME280;24088;42.664;23.354;2022-10-03T05:17:38;94942.38;;;12.12;100.00
38285;BME280;24088;42.664;23.354;2022-10-03T05:18:45;94933.78;;;12.10;100.00
38285;BME280;24088;42.664;23.354;2022-10-03T05:20:00;94936.28;;;12.04;100.00
38285;BME280;24088;42.664;23.354;2022-10-03T05:21:04;94938.19;;;11.91;100.00
38285;BME280;24088;42.664;23.354;2022-10-03T05:22:13;94943.69;;;11.91;100.00
38285;BME280;24088;42.664;23.354;2022-10-03T05:23:18;94941.94;;;11.97;100.00
38285;BME280;24088;42.664;23.354;2022-10-03T05:24:25;94941.78;;;12.04;100.00
38285;BME280;24088;42.664;23.354;2022-10-03T05:25:36;94948.38;;;12.07;100.00
38285;BME280;24088;42.664;23.354;2022-10-03T05:26:42;94950.72;;;12.08;100.00
38285;BME280;24088;42.664;23.354;2022-10-03T05:27:49;94940.81;;;12.11;100.00
38285;BME280;24088;42.664;23.354;2022-10-03T05:28:53;94943.25;;;12.09;100.00
38285;BME280;24088;42.664;23.354;2022-10-03T05:30:01;94941.59;;;12.11;100.00
38285;BME280;24088;42.664;23.354;2022-10-03T05:31:03;94937.97;;;12.14;100.00
38285;BME280;24088;42.664;23.354;2022-10-03T05:32:16;94934.63;;;12.23;100.00
38285;BME280;24088;42.664;23.354;2022-10-03T05:33:25;94932.47;;;12.14;100.00
38285;BME280;24088;42.664;23.354;2022-10-03T05:34:33;94929.03;;;12.26;100.00
38285;BME280;24088;42.664;23.354;2022-10-03T05:35:42;94925.06;;;12.27;100.00
38285;BME280;24088;42.664;23.354;2022-10-03T05:38:07;94920.25;;;12.32;100.00
38285;BME280;24088;42.664;23.354;2022-10-03T05:39:24;94913.28;;;12.27;100.00
38285;BME280;24088;42.664;23.354;2022-10-03T05:40:26;94914.06;;;12.27;100.00
38285;BME280;24088;42.664;23.354;2022-10-03T05:41:28;94902.97;;;12.31;100.00
38285;BME280;24088;42.664;23.354;2022-10-03T05:42:34;94897.97;;;12.42;100.00
38285;BME280;24088;42.664;23.354;2022-10-03T05:43:42;94893.63;;;12.41;100.00
38285;BME280;24088;42.664;23.354;2022-10-03T05:44:46;94902.84;;;12.51;100.00
38285;BME280;24088;42.664;23.354;2022-10-03T05:45:51;94900.31;;;12.57;100.00
38285;BME280;24088;42.664;23.354;2022-10-03T05:46:57;94892.69;;;12.48;100.00
38285;BME280;24088;42.664;23.354;2022-10-03T05:48:17;94896.56;;;12.50;100.00
38285;BME280;24088;42.664;23.354;2022-10-03T05:49:26;94902.41;;;12.52;100.00
38285;BME280;24088;42.664;23.354;2022-10-03T05:50:33;94904.28;;;12.56;100.00
38285;BME280;24088;42.664;23.354;2022-10-03T05:51:46;94915.88;;;12.63;100.00
38285;BME280;24088;42.664;23.354;2022-10-03T05:53:07;94910.97;;;12.54;100.00
38285;BME280;24088;42.664;23.354;2022-10-03T05:54:23;94903.53;;;12.55;100.00
38285;BME280;24088;42.664;23.354;2022-10-03T05:55:28;94914.31;;;12.62;100.00
38285;BME280;24088;42.664;23.354;2022-10-03T05:56:49;94909.31;;;12.73;100.00
38285;BME280;24088;42.664;23.354;2022-10-03T05:59:33;94909.75;;;12.85;100.00
38285;BME280;24088;42.664;23.354;2022-10-03T06:00:43;94911.34;;;12.86;100.00
38285;BME280;24088;42.664;23.354;2022-10-03T06:03:22;94915.03;;;12.79;100.00
38285;BME280;24088;42.664;23.354;2022-10-03T06:04:36;94919.06;;;12.91;100.00
38285;BME280;24088;42.664;23.354;2022-10-03T06:05:43;94921.53;;;13.14;100.00
38285;BME280;24088;42.664;23.354;2022-10-03T06:06:55;94918.63;;;13.05;100.00
38285;BME280;24088;42.664;23.354;2022-10-03T06:08:19;94915.78;;;13.09;100.00
38285;BME280;24088;42.664;23.354;2022-10-03T06:09:33;94927.22;;;13.23;100.00
38285;BME280;24088;42.664;23.354;2022-10-03T06:10:41;94928.75;;;13.24;100.00
38285;BME280;24088;42.664;23.354;2022-10-03T06:11:46;94925.38;;;13.46;100.00
38285;BME280;24088;42.664;23.354;2022-10-03T06:12:57;94931.94;;;13.36;100.00
38285;BME280;24088;42.664;23.354;2022-10-03T06:15:44;94935.66;;;13.16;100.00
38285;BME280;24088;42.664;23.354;2022-10-03T06:16:55;94934.47;;;13.30;100.00
38285;BME280;24088;42.664;23.354;2022-10-03T06:18:09;94929.84;;;13.40;100.00
38285;BME280;24088;42.664;23.354;2022-10-03T06:19:18;94928.00;;;13.37;100.00
38285;BME280;24088;42.664;23.354;2022-10-03T06:22:21;94928.53;;;13.44;100.00
38285;BME280;24088;42.664;23.354;2022-10-03T06:23:49;94939.03;;;13.37;100.00
38285;BME280;24088;42.664;23.354;2022-10-03T06:25:13;94936.78;;;13.32;100.00
38285;BME280;24088;42.664;23.354;2022-10-03T06:26:38;94942.09;;;13.39;100.00
38285;BME280;24088;42.664;23.354;2022-10-03T06:27:51;94942.00;;;13.42;100.00
38285;BME280;24088;42.664;23.354;2022-10-03T06:29:01;94945.53;;;13.43;100.00
38285;BME280;24088;42.664;23.354;2022-10-03T06:30:20;94942.78;;;13.56;100.00
38285;BME280;24088;42.664;23.354;2022-10-03T06:31:30;94941.16;;;13.58;100.00
38285;BME280;24088;42.664;23.354;2022-10-03T06:32:57;94935.50;;;13.62;100.00
38285;BME280;24088;42.664;23.354;2022-10-03T06:34:28;94935.38;;;13.78;100.00
38285;BME280;24088;42.664;23.354;2022-10-03T06:41:30;94927.91;;;14.39;100.00
38285;BME280;24088;42.664;23.354;2022-10-03T06:43:59;94937.94;;;14.45;100.00
38285;BME280;24088;42.664;23.354;2022-10-03T06:45:26;94946.19;;;14.23;100.00
38285;BME280;24088;42.664;23.354;2022-10-03T06:46:38;94945.09;;;14.08;100.00
38285;BME280;24088;42.664;23.354;2022-10-03T06:47:49;94946.41;;;14.03;100.00
38285;BME280;24088;42.664;23.354;2022-10-03T06:48:59;94942.13;;;13.90;100.00
38285;BME280;24088;42.664;23.354;2022-10-03T06:54:22;94946.09;;;14.01;100.00
38285;BME280;24088;42.664;23.354;2022-10-03T06:55:46;94949.84;;;13.95;100.00
38285;BME280;24088;42.664;23.354;2022-10-03T06:58:18;94948.19;;;13.97;100.00